sensor_id;sensor_type;location;lat;lon;timestamp;pressure;altitude;pressure_sealevel;temperature;humidity
62791;BME280;48830;53.426;10.300;2023-02-28T00:00:11;103109.31;;;2.77;98.82
62791;BME280;48830;53.426;10.300;2023-02-28T00:02:39;103115.66;;;2.72;98.65
62791;BME280;48830;53.426;10.300;2023-02-28T00:05:06;103112.72;;;2.67;99.12
62791;BME280;48830;53.426;10.300;2023-02-28T00:07:32;103116.28;;;2.59;98.67
62791;BME280;48830;53.426;10.300;2023-02-28T00:09:58;103115.00;;;2.54;97.73
62791;BME280;48830;53.426;10.300;2023-02-28T00:12:24;103115.09;;;2.45;97.79
62791;BME280;48830;53.426;10.300;2023-02-28T00:14:51;103113.94;;;2.31;97.64
62791;BME280;48830;53.426;10.300;2023-02-28T00:17:16;103116.19;;;2.28;98.33
62791;BME280;48830;53.426;10.300;2023-02-28T00:19:50;103110.34;;;2.29;97.36
62791;BME280;48830;53.426;10.300;2023-02-28T00:22:20;103111.38;;;2.21;98.25
62791;BME280;48830;53.426;10.300;2023-02-28T00:24:46;103114.25;;;2.16;97.99
62791;BME280;48830;53.426;10.300;2023-02-28T00:27:13;103110.16;;;2.07;99.20
62791;BME280;48830;53.426;10.300;2023-02-28T00:29:39;103107.22;;;2.03;98.22
62791;BME280;48830;53.426;10.300;2023-02-28T00:32:05;103110.88;;;1.96;97.94
62791;BME280;48830;53.426;10.300;2023-02-28T00:34:30;103105.75;;;1.86;99.67
62791;BME280;48830;53.426;10.300;2023-02-28T00:36:56;103112.19;;;1.82;99.24
62791;BME280;48830;53.426;10.300;2023-02-28T00:39:21;103105.34;;;1.81;100.00
62791;BME280;48830;53.426;10.300;2023-02-28T00:41:47;103107.13;;;1.82;100.00
62791;BME280;48830;53.426;10.300;2023-02-28T00:44:13;103112.94;;;1.81;100.00
62791;BME280;48830;53.426;10.300;2023-02-28T00:46:38;103117.06;;;1.71;100.00
62791;BME280;48830;53.426;10.300;2023-02-28T00:49:04;103117.16;;;1.62;99.90
62791;BME280;48830;53.426;10.300;2023-02-28T00:51:29;103124.78;;;1.62;100.00
62791;BME280;48830;53.426;10.300;2023-02-28T00:53:56;103122.97;;;1.61;100.00
62791;BME280;48830;53.426;10.300;2023-02-28T00:56:22;103135.03;;;1.45;100.00
62791;BME280;48830;53.426;10.300;2023-02-28T00:58:48;103129.06;;;1.44;100.00
62791;BME280;48830;53.426;10.300;2023-02-28T01:01:14;103130.72;;;1.44;100.00
62791;BME280;48830;53.426;10.300;2023-02-28T01:03:39;103125.66;;;1.44;100.00
62791;BME280;48830;53.426;10.300;2023-02-28T01:06:05;103134.47;;;1.39;100.00
62791;BME280;48830;53.426;10.300;2023-02-28T01:08:30;103134.34;;;1.37;100.00
62791;BME280;48830;53.426;10.300;2023-02-28T01:10:56;103132.63;;;1.27;100.00
62791;BME280;48830;53.426;10.300;2023-02-28T01:13:22;103125.78;;;1.26;100.00
62791;BME280;48830;53.426;10.300;2023-02-28T01:15:54;103136.56;;;1.24;100.00
62791;BME280;48830;53.426;10.300;2023-02-28T01:18:21;103134.91;;;1.24;100.00
62791;BME280;48830;53.426;10.300;2023-02-28T01:20:47;103134.91;;;1.24;100.00
62791;BME280;48830;53.426;10.300;2023-02-28T01:23:12;103133.59;;;1.19;100.00
62791;BME280;48830;53.426;10.300;2023-02-28T01:25:38;103139.88;;;1.14;100.00
62791;BME280;48830;53.426;10.300;2023-02-28T01:28:04;103131.22;;;1.12;100.00
62791;BME280;48830;53.426;10.300;2023-02-28T01:30:31;103129.31;;;1.10;100.00
62791;BME280;48830;53.426;10.300;2023-02-28T01:32:57;103127.13;;;1.04;100.00
62791;BME280;48830;53.426;10.300;2023-02-28T01:35:24;103126.84;;;1.01;100.00
62791;BME280;48830;53.426;10.300;2023-02-28T01:37:50;103126.06;;;1.02;100.00
62791;BME280;48830;53.426;10.300;2023-02-28T01:40:15;103129.81;;;0.97;100.00
62791;BME280;48830;53.426;10.300;2023-02-28T01:42:41;103130.16;;;0.91;100.00
62791;BME280;48830;53.426;10.300;2023-02-28T01:45:23;103121.69;;;0.91;100.00
62791;BME280;48830;53.426;10.300;2023-02-28T01:47:52;103123.66;;;0.85;100.00
62791;BME280;48830;53.426;10.300;2023-02-28T01:50:23;103125.03;;;0.81;100.00
62791;BME280;48830;53.426;10.300;2023-02-28T01:52:51;103125.19;;;0.74;100.00
62791;BME280;48830;53.426;10.300;2023-02-28T01:55:19;103119.69;;;0.69;100.00
62791;BME280;48830;53.426;10.300;2023-02-28T01:57:52;103122.09;;;0.68;100.00
62791;BME280;48830;53.426;10.300;2023-02-28T02:00:22;103118.53;;;0.66;100.00
62791;BME280;48830;53.426;10.300;2023-02-28T02:02:51;103125.72;;;0.61;100.00
62791;BME280;48830;53.426;10.300;2023-02-28T02:05:21;103127.94;;;0.58;100.00
62791;BME280;48830;53.426;10.300;2023-02-28T02:07:51;103122.31;;;0.52;100.00
62791;BME280;48830;53.426;10.300;2023-02-28T02:10:20;103123.19;;;0.52;100.00
62791;BME280;48830;53.426;10.300;2023-02-28T02:18:46;103125.34;;;0.39;100.00
62791;BME280;48830;53.426;10.300;2023-02-28T02:24:15;103115.69;;;0.35;100.00
62791;BME280;48830;53.426;10.300;2023-02-28T02:34:48;103122.69;;;0.29;100.00
62791;BME280;48830;53.426;10.300;2023-02-28T02:42:40;103125.25;;;0.20;100.00
62791;BME280;48830;53.426;10.300;2023-02-28T02:45:31;103122.28;;;0.16;100.00
62791;BME280;48830;53.426;10.300;2023-02-28T02:48:02;103123.66;;;0.12;100.00
62791;BME280;48830;53.426;10.300;2023-02-28T02:50:41;103118.59;;;0.12;100.00
62791;BME280;48830;53.426;10.300;2023-02-28T02:53:10;103125.13;;;0.10;100.00
62791;BME280;48830;53.426;10.300;2023-02-28T02:55:41;103113.66;;;0.05;100.00
62791;BME280;48830;53.426;10.300;2023-02-28T02:58:11;103112.94;;;0.06;100.00
62791;BME280;48830;53.426;10.300;2023-02-28T03:00:46;103112.97;;;-0.11;100.00
62791;BME280;48830;53.426;10.300;2023-02-28T03:03:15;103116.25;;;-0.12;100.00
62791;BME280;48830;53.426;10.300;2023-02-28T03:05:50;103125.00;;;-0.17;100.00
62791;BME280;48830;53.426;10.300;2023-02-28T03:08:16;103116.41;;;-0.19;100.00
62791;BME280;48830;53.426;10.300;2023-02-28T03:10:44;103109.44;;;-0.31;100.00
62791;BME280;48830;53.426;10.300;2023-02-28T03:21:43;103127.25;;;-0.38;100.00
62791;BME280;48830;53.426;10.300;2023-02-28T03:24:18;103118.38;;;-0.43;100.00
62791;BME280;48830;53.426;10.300;2023-02-28T03:26:52;103122.50;;;-0.43;100.00
62791;BME280;48830;53.426;10.300;2023-02-28T03:29:26;103118.38;;;-0.43;100.00
62791;BME280;48830;53.426;10.300;2023-02-28T03:31:59;103119.84;;;-0.45;100.00
62791;BME280;48830;53.426;10.300;2023-02-28T03:34:30;103125.50;;;-0.47;100.00
62791;BME280;48830;53.426;10.300;2023-02-28T03:37:07;103128.00;;;-0.56;100.00
62791;BME280;48830;53.426;10.300;2023-02-28T03:39:42;103130.81;;;-0.62;100.00
62791;BME280;48830;53.426;10.300;2023-02-28T03:42:15;103131.72;;;-0.61;100.00
62791;BME280;48830;53.426;10.300;2023-02-28T03:44:44;103129.63;;;-0.65;100.00
62791;BME280;48830;53.426;10.300;2023-02-28T03:47:13;103125.47;;;-0.73;100.00
62791;BME280;48830;53.426;10.300;2023-02-28T03:49:54;103134.81;;;-0.72;100.00
62791;BME280;48830;53.426;10.300;2023-02-28T03:52:24;103141.81;;;-0.78;100.00
62791;BME280;48830;53.426;10.300;2023-02-28T03:54:54;103136.44;;;-0.82;100.00
62791;BME280;48830;53.426;10.300;2023-02-28T04:00:37;103144.28;;;-0.87;100.00
62791;BME280;48830;53.426;10.300;2023-02-28T04:03:05;103142.94;;;-0.92;100.00
62791;BME280;48830;53.426;10.300;2023-02-28T04:05:31;103133.75;;;-1.00;100.00
62791;BME280;48830;53.426;10.300;2023-02-28T04:08:05;103134.78;;;-0.98;100.00
62791;BME280;48830;53.426;10.300;2023-02-28T04:10:31;103135.97;;;-0.95;100.00
62791;BME280;48830;53.426;10.300;2023-02-28T04:12:57;103136.84;;;-1.03;100.00
62791;BME280;48830;53.426;10.300;2023-02-28T04:15:22;103148.00;;;-1.01;100.00
62791;BME280;48830;53.426;10.300;2023-02-28T04:17:48;103141.59;;;-1.06;100.00
62791;BME280;48830;53.426;10.300;2023-02-28T04:20:13;103148.00;;;-1.01;100.00
62791;BME280;48830;53.426;10.300;2023-02-28T04:22:39;103148.00;;;-1.01;100.00
62791;BME280;48830;53.426;10.300;2023-02-28T04:25:05;103145.91;;;-1.05;100.00
62791;BME280;48830;53.426;10.300;2023-02-28T04:27:30;103144.41;;;-1.03;100.00
62791;BME280;48830;53.426;10.300;2023-02-28T04:29:56;103144.88;;;-0.98;100.00
62791;BME280;48830;53.426;10.300;2023-02-28T04:32:21;103143.09;;;-0.99;100.00
62791;BME280;48830;53.426;10.300;2023-02-28T04:34:47;103137.72;;;-1.02;100.00
62791;BME280;48830;53.426;10.300;2023-02-28T04:37:12;103135.81;;;-1.05;100.00
62791;BME280;48830;53.426;10.300;2023-02-28T04:39:38;103133.13;;;-1.07;100.00
62791;BME280;48830;53.426;10.300;2023-02-28T04:42:04;103140.81;;;-1.14;100.00
62791;BME280;48830;53.426;10.300;2023-02-28T04:44:30;103132.94;;;-1.17;100.00
62791;BME280;48830;53.426;10.300;2023-02-28T04:46:55;103142.59;;;-1.21;100.00
62791;BME280;48830;53.426;10.300;2023-02-28T04:49:21;103137.22;;;-1.24;100.00
62791;BME280;48830;53.426;10.300;2023-02-28T04:51:46;103145.44;;;-1.18;100.00
62791;BME280;48830;53.426;10.300;2023-02-28T04:54:12;103140.25;;;-1.11;100.00
62791;BME280;48830;53.426;10.300;2023-02-28T04:56:38;103140.25;;;-1.11;100.00
62791;BME280;48830;53.426;10.300;2023-02-28T04:59:03;103144.22;;;-1.22;100.00
62791;BME280;48830;53.426;10.300;2023-02-28T05:01:33;103149.13;;;-1.23;100.00
62791;BME280;48830;53.426;10.300;2023-02-28T05:04:01;103152.47;;;-1.32;100.00
62791;BME280;48830;53.426;10.300;2023-02-28T05:06:30;103142.53;;;-1.30;100.00
62791;BME280;48830;53.426;10.300;2023-02-28T05:08:56;103155.00;;;-1.32;100.00
62791;BME280;48830;53.426;10.300;2023-02-28T05:11:29;103150.50;;;-1.43;100.00
62791;BME280;48830;53.426;10.300;2023-02-28T05:14:03;103154.94;;;-1.40;100.00
62791;BME280;48830;53.426;10.300;2023-02-28T05:16:29;103145.59;;;-1.50;100.00
62791;BME280;48830;53.426;10.300;2023-02-28T05:18:54;103147.22;;;-1.50;100.00
62791;BME280;48830;53.426;10.300;2023-02-28T05:21:35;103151.34;;;-1.51;100.00
62791;BME280;48830;53.426;10.300;2023-02-28T05:24:04;103151.94;;;-1.53;100.00
62791;BME280;48830;53.426;10.300;2023-02-28T05:26:31;103151.88;;;-1.62;100.00
62791;BME280;48830;53.426;10.300;2023-02-28T05:28:58;103150.09;;;-1.63;100.00
62791;BME280;48830;53.426;10.300;2023-02-28T05:31:24;103156.94;;;-1.62;100.00
62791;BME280;48830;53.426;10.300;2023-02-28T05:33:49;103161.97;;;-1.62;100.00
62791;BME280;48830;53.426;10.300;2023-02-28T05:36:15;103159.91;;;-1.66;100.00
62791;BME280;48830;53.426;10.300;2023-02-28T05:38:40;103163.72;;;-1.70;100.00
62791;BME280;48830;53.426;10.300;2023-02-28T05:41:07;103160.16;;;-1.72;100.00
62791;BME280;48830;53.426;10.300;2023-02-28T05:43:33;103162.50;;;-1.73;100.00
62791;BME280;48830;53.426;10.300;2023-02-28T05:46:02;103161.59;;;-1.82;100.00
62791;BME280;48830;53.426;10.300;2023-02-28T05:48:27;103161.00;;;-1.80;100.00
62791;BME280;48830;53.426;10.300;2023-02-28T05:50:53;103160.84;;;-1.81;100.00
62791;BME280;48830;53.426;10.300;2023-02-28T05:53:18;103164.81;;;-1.83;100.00
62791;BME280;48830;53.426;10.300;2023-02-28T05:55:44;103166.69;;;-1.90;100.00
62791;BME280;48830;53.426;10.300;2023-02-28T05:58:09;103165.03;;;-1.98;100.00
62791;BME280;48830;53.426;10.300;2023-02-28T06:00:35;103169.47;;;-1.95;100.00
62791;BME280;48830;53.426;10.300;2023-02-28T06:03:00;103175.13;;;-1.98;100.00
62791;BME280;48830;53.426;10.300;2023-02-28T06:05:27;103177.53;;;-1.91;100.00
62791;BME280;48830;53.426;10.300;2023-02-28T06:07:53;103182.25;;;-1.94;100.00
62791;BME280;48830;53.426;10.300;2023-02-28T06:10:18;103181.19;;;-1.96;100.00
62791;BME280;48830;53.426;10.300;2023-02-28T06:12:44;103173.41;;;-2.06;100.00
62791;BME280;48830;53.426;10.300;2023-02-28T06:15:14;103174.47;;;-2.04;100.00
62791;BME280;48830;53.426;10.300;2023-02-28T06:17:41;103176.81;;;-2.05;100.00
62791;BME280;48830;53.426;10.300;2023-02-28T06:20:08;103180.97;;;-2.06;100.00
62791;BME280;48830;53.426;10.300;2023-02-28T06:22:35;103179.19;;;-2.07;100.00
62791;BME280;48830;53.426;10.300;2023-02-28T06:25:01;103188.53;;;-2.06;100.00
62791;BME280;48830;53.426;10.300;2023-02-28T06:27:26;103185.44;;;-2.03;100.00
62791;BME280;48830;53.426;10.300;2023-02-28T06:29:55;103195.53;;;-2.03;100.00
62791;BME280;48830;53.426;10.300;2023-02-28T06:32:23;103196.41;;;-2.03;100.00
62791;BME280;48830;53.426;10.300;2023-02-28T06:34:48;103195.94;;;-2.07;100.00
62791;BME280;48830;53.426;10.300;2023-02-28T06:37:15;103194.31;;;-2.07;100.00
62791;BME280;48830;53.426;10.300;2023-02-28T06:39:41;103191.63;;;-2.08;100.00
62791;BME280;48830;53.426;10.300;2023-02-28T06:42:06;103199.19;;;-2.08;100.00
62791;BME280;48830;53.426;10.300;2023-02-28T06:44:32;103194.63;;;-2.04;100.00
62791;BME280;48830;53.426;10.300;2023-02-28T06:47:04;103199.97;;;-2.01;100.00
62791;BME280;48830;53.426;10.300;2023-02-28T06:49:32;103205.59;;;-2.03;100.00
62791;BME280;48830;53.426;10.300;2023-02-28T06:51:58;103202.34;;;-2.02;100.00
62791;BME280;48830;53.426;10.300;2023-02-28T06:54:23;103207.25;;;-2.04;100.00
62791;BME280;48830;53.426;10.300;2023-02-28T06:56:49;103203.97;;;-2.03;100.00
62791;BME280;48830;53.426;10.300;2023-02-28T06:59:14;103208.75;;;-1.97;100.00
62791;BME280;48830;53.426;10.300;2023-02-28T07:01:40;103213.56;;;-1.92;100.00
62791;BME280;48830;53.426;10.300;2023-02-28T07:04:06;103206.88;;;-1.91;100.00
62791;BME280;48830;53.426;10.300;2023-02-28T07:06:32;103213.44;;;-1.85;100.00
62791;BME280;48830;53.426;10.300;2023-02-28T07:08:58;103214.41;;;-1.75;100.00
62791;BME280;48830;53.426;10.300;2023-02-28T07:11:27;103211.78;;;-1.68;100.00
62791;BME280;48830;53.426;10.300;2023-02-28T07:13:54;103215.72;;;-1.54;100.00
62791;BME280;48830;53.426;10.300;2023-02-28T07:16:20;103213.16;;;-1.39;100.00
62791;BME280;48830;53.426;10.300;2023-02-28T07:18:46;103214.81;;;-1.30;100.00
62791;BME280;48830;53.426;10.300;2023-02-28T07:21:12;103218.59;;;-1.18;100.00
62791;BME280;48830;53.426;10.300;2023-02-28T07:23:38;103225.34;;;-1.01;100.00
62791;BME280;48830;53.426;10.300;2023-02-28T07:26:05;103227.03;;;-0.85;100.00
62791;BME280;48830;53.426;10.300;2023-02-28T07:28:30;103222.19;;;-0.74;100.00
62791;BME280;48830;53.426;10.300;2023-02-28T07:30:56;103221.31;;;-0.58;100.00
62791;BME280;48830;53.426;10.300;2023-02-28T07:33:21;103225.06;;;-0.37;100.00
62791;BME280;48830;53.426;10.300;2023-02-28T07:35:47;103214.06;;;-0.11;100.00
62791;BME280;48830;53.426;10.300;2023-02-28T07:38:12;103222.41;;;0.14;100.00
62791;BME280;48830;53.426;10.300;2023-02-28T07:40:39;103220.31;;;0.27;100.00
62791;BME280;48830;53.426;10.300;2023-02-28T07:43:05;103225.03;;;0.41;100.00
62791;BME280;48830;53.426;10.300;2023-02-28T07:45:31;103217.84;;;0.63;100.00
62791;BME280;48830;53.426;10.300;2023-02-28T07:47:59;103220.78;;;0.76;100.00
62791;BME280;48830;53.426;10.300;2023-02-28T07:50:25;103219.28;;;0.87;100.00
62791;BME280;48830;53.426;10.300;2023-02-28T07:52:52;103225.16;;;1.05;100.00
62791;BME280;48830;53.426;10.300;2023-02-28T07:55:18;103218.97;;;1.20;100.00
62791;BME280;48830;53.426;10.300;2023-02-28T07:57:43;103224.06;;;1.39;100.00
62791;BME280;48830;53.426;10.300;2023-02-28T08:00:11;103221.50;;;1.67;100.00
62791;BME280;48830;53.426;10.300;2023-02-28T08:02:39;103221.72;;;1.78;100.00
62791;BME280;48830;53.426;10.300;2023-02-28T08:05:05;103222.13;;;2.02;100.00
62791;BME280;48830;53.426;10.300;2023-02-28T08:07:31;103227.03;;;2.19;100.00
62791;BME280;48830;53.426;10.300;2023-02-28T08:09:57;103220.16;;;2.37;100.00
62791;BME280;48830;53.426;10.300;2023-02-28T08:12:23;103226.19;;;2.58;100.00
62791;BME280;48830;53.426;10.300;2023-02-28T08:14:48;103228.53;;;2.65;100.00
62791;BME280;48830;53.426;10.300;2023-02-28T08:17:13;103229.84;;;2.80;100.00
62791;BME280;48830;53.426;10.300;2023-02-28T08:19:39;103235.25;;;3.14;100.00
62791;BME280;48830;53.426;10.300;2023-02-28T08:22:04;103228.16;;;3.30;100.00
62791;BME280;48830;53.426;10.300;2023-02-28T08:24:30;103236.69;;;3.41;100.00
62791;BME280;48830;53.426;10.300;2023-02-28T08:26:55;103227.91;;;3.68;100.00
62791;BME280;48830;53.426;10.300;2023-02-28T08:29:21;103229.91;;;3.92;100.00
62791;BME280;48830;53.426;10.300;2023-02-28T08:31:46;103238.06;;;3.88;100.00
62791;BME280;48830;53.426;10.300;2023-02-28T08:34:13;103242.34;;;4.20;100.00
62791;BME280;48830;53.426;10.300;2023-02-28T08:36:40;103238.22;;;4.32;97.68
62791;BME280;48830;53.426;10.300;2023-02-28T08:39:06;103232.94;;;4.73;96.21
62791;BME280;48830;53.426;10.300;2023-02-28T08:41:32;103240.31;;;4.80;94.50
62791;BME280;48830;53.426;10.300;2023-02-28T08:43:58;103243.44;;;5.10;93.06
62791;BME280;48830;53.426;10.300;2023-02-28T08:46:23;103237.69;;;5.12;91.59
62791;BME280;48830;53.426;10.300;2023-02-28T08:48:54;103243.38;;;5.20;90.38
62791;BME280;48830;53.426;10.300;2023-02-28T08:51:20;103249.13;;;5.39;89.76
62791;BME280;48830;53.426;10.300;2023-02-28T08:53:56;103244.81;;;5.50;86.45
62791;BME280;48830;53.426;10.300;2023-02-28T08:56:22;103244.84;;;5.62;86.18
62791;BME280;48830;53.426;10.300;2023-02-28T08:58:49;103236.63;;;5.99;84.81
62791;BME280;48830;53.426;10.300;2023-02-28T09:03:41;103243.69;;;6.50;79.97
62791;BME280;48830;53.426;10.300;2023-02-28T09:06:08;103245.38;;;6.50;79.38
62791;BME280;48830;53.426;10.300;2023-02-28T09:08:34;103246.63;;;6.92;79.76
62791;BME280;48830;53.426;10.300;2023-02-28T09:11:00;103245.53;;;6.76;76.85
62791;BME280;48830;53.426;10.300;2023-02-28T09:13:27;103246.41;;;7.14;77.22
62791;BME280;48830;53.426;10.300;2023-02-28T09:15:53;103244.59;;;7.49;75.93
62791;BME280;48830;53.426;10.300;2023-02-28T09:18:19;103241.38;;;7.27;73.44
62791;BME280;48830;53.426;10.300;2023-02-28T09:20:45;103238.00;;;7.53;72.19
62791;BME280;48830;53.426;10.300;2023-02-28T09:23:12;103242.63;;;8.10;73.64
62791;BME280;48830;53.426;10.300;2023-02-28T09:25:45;103249.59;;;8.79;69.87
62791;BME280;48830;53.426;10.300;2023-02-28T09:28:11;103246.38;;;9.24;68.20
62791;BME280;48830;53.426;10.300;2023-02-28T09:30:37;103252.25;;;9.51;64.71
62791;BME280;48830;53.426;10.300;2023-02-28T09:33:02;103248.19;;;13.79;52.05
62791;BME280;48830;53.426;10.300;2023-02-28T09:35:28;103252.00;;;17.76;42.32
62791;BME280;48830;53.426;10.300;2023-02-28T09:37:56;103253.69;;;21.05;37.69
62791;BME280;48830;53.426;10.300;2023-02-28T09:40:24;103267.19;;;22.56;34.67
62791;BME280;48830;53.426;10.300;2023-02-28T09:42:53;103271.00;;;23.57;33.73
62791;BME280;48830;53.426;10.300;2023-02-28T09:45:33;103273.53;;;24.52;32.46
62791;BME280;48830;53.426;10.300;2023-02-28T09:48:04;103278.00;;;23.78;31.50
62791;BME280;48830;53.426;10.300;2023-02-28T09:50:41;103284.13;;;24.28;31.57
62791;BME280;48830;53.426;10.300;2023-02-28T09:53:19;103282.25;;;24.76;30.41
62791;BME280;48830;53.426;10.300;2023-02-28T09:56:11;103291.03;;;26.07;30.01
62791;BME280;48830;53.426;10.300;2023-02-28T10:06:49;103288.69;;;26.64;26.85
62791;BME280;48830;53.426;10.300;2023-02-28T10:09:32;103277.53;;;27.67;25.51
62791;BME280;48830;53.426;10.300;2023-02-28T10:12:05;103284.16;;;28.40;24.85
62791;BME280;48830;53.426;10.300;2023-02-28T10:14:33;103286.00;;;28.78;24.76
62791;BME280;48830;53.426;10.300;2023-02-28T10:17:04;103287.06;;;28.70;24.50
62791;BME280;48830;53.426;10.300;2023-02-28T10:22:24;103266.88;;;29.79;23.95
62791;BME280;48830;53.426;10.300;2023-02-28T10:24:54;103275.97;;;30.03;23.91
62791;BME280;48830;53.426;10.300;2023-02-28T10:27:25;103278.19;;;30.20;23.14
62791;BME280;48830;53.426;10.300;2023-02-28T10:29:52;103276.47;;;30.17;22.52
62791;BME280;48830;53.426;10.300;2023-02-28T10:32:21;103274.19;;;30.36;22.66
62791;BME280;48830;53.426;10.300;2023-02-28T10:34:59;103274.63;;;30.52;22.49
62791;BME280;48830;53.426;10.300;2023-02-28T10:37:27;103271.22;;;30.47;21.59
62791;BME280;48830;53.426;10.300;2023-02-28T10:39:53;103264.72;;;31.15;21.82
62791;BME280;48830;53.426;10.300;2023-02-28T10:42:27;103259.38;;;31.96;21.35
62791;BME280;48830;53.426;10.300;2023-02-28T10:45:16;103258.94;;;32.08;20.96
62791;BME280;48830;53.426;10.300;2023-02-28T10:48:00;103263.56;;;32.97;21.01
62791;BME280;48830;53.426;10.300;2023-02-28T10:50:53;103257.03;;;32.82;20.06
62791;BME280;48830;53.426;10.300;2023-02-28T10:58:26;103264.53;;;32.00;21.14
62791;BME280;48830;53.426;10.300;2023-02-28T11:00:52;103254.47;;;31.32;20.61
62791;BME280;48830;53.426;10.300;2023-02-28T11:03:30;103250.91;;;32.09;21.27
62791;BME280;48830;53.426;10.300;2023-02-28T11:05:56;103254.94;;;31.17;21.79
62791;BME280;48830;53.426;10.300;2023-02-28T11:08:22;103252.88;;;32.75;20.44
62791;BME280;48830;53.426;10.300;2023-02-28T11:10:55;103255.72;;;33.15;20.36
62791;BME280;48830;53.426;10.300;2023-02-28T11:13:26;103256.84;;;32.41;21.21
62791;BME280;48830;53.426;10.300;2023-02-28T11:15:55;103265.25;;;33.84;20.38
62791;BME280;48830;53.426;10.300;2023-02-28T11:18:54;103258.38;;;33.15;20.72
62791;BME280;48830;53.426;10.300;2023-02-28T11:21:24;103268.97;;;34.20;19.61
62791;BME280;48830;53.426;10.300;2023-02-28T11:23:56;103262.16;;;33.94;19.91
62791;BME280;48830;53.426;10.300;2023-02-28T11:26:45;103258.09;;;32.78;19.59
62791;BME280;48830;53.426;10.300;2023-02-28T11:29:15;103251.31;;;33.77;20.02
62791;BME280;48830;53.426;10.300;2023-02-28T11:31:41;103247.22;;;32.60;19.90
62791;BME280;48830;53.426;10.300;2023-02-28T11:34:25;103245.69;;;34.43;20.23
62791;BME280;48830;53.426;10.300;2023-02-28T11:36:51;103248.88;;;33.08;20.13
62791;BME280;48830;53.426;10.300;2023-02-28T11:39:19;103247.63;;;34.20;19.90
62791;BME280;48830;53.426;10.300;2023-02-28T11:50:26;103237.47;;;33.69;19.35
62791;BME280;48830;53.426;10.300;2023-02-28T11:53:05;103229.69;;;34.62;20.01
62791;BME280;48830;53.426;10.300;2023-02-28T11:55:36;103229.78;;;33.82;19.83
62791;BME280;48830;53.426;10.300;2023-02-28T12:05:45;103215.00;;;33.54;20.35
62791;BME280;48830;53.426;10.300;2023-02-28T12:19:57;103188.28;;;32.23;20.89
62791;BME280;48830;53.426;10.300;2023-02-28T12:22:31;103188.50;;;32.63;20.90
62791;BME280;48830;53.426;10.300;2023-02-28T12:27:40;103179.53;;;33.10;19.87
62791;BME280;48830;53.426;10.300;2023-02-28T12:30:19;103173.63;;;32.36;20.50
62791;BME280;48830;53.426;10.300;2023-02-28T12:32:49;103174.25;;;32.43;20.53
62791;BME280;48830;53.426;10.300;2023-02-28T12:35:23;103171.28;;;33.36;20.59
62791;BME280;48830;53.426;10.300;2023-02-28T12:38:05;103162.84;;;31.92;20.46
62791;BME280;48830;53.426;10.300;2023-02-28T12:40:51;103165.28;;;29.44;23.24
62791;BME280;48830;53.426;10.300;2023-02-28T12:43:20;103160.47;;;29.91;22.58
62791;BME280;48830;53.426;10.300;2023-02-28T12:46:32;103154.47;;;30.75;21.85
62791;BME280;48830;53.426;10.300;2023-02-28T12:48:53;103152.16;;;30.03;21.80
62791;BME280;48830;53.426;10.300;2023-02-28T12:51:22;103148.53;;;28.71;22.92
62791;BME280;48830;53.426;10.300;2023-02-28T12:54:14;103143.06;;;26.31;23.82
62791;BME280;48830;53.426;10.300;2023-02-28T12:56:49;103127.94;;;24.72;25.39
62791;BME280;48830;53.426;10.300;2023-02-28T12:59:24;103121.75;;;24.77;26.06
62791;BME280;48830;53.426;10.300;2023-02-28T13:10:23;103097.28;;;27.48;24.40
62791;BME280;48830;53.426;10.300;2023-02-28T13:12:51;103098.16;;;27.50;24.11
62791;BME280;48830;53.426;10.300;2023-02-28T13:15:27;103092.69;;;26.53;24.60
62791;BME280;48830;53.426;10.300;2023-02-28T13:17:56;103090.63;;;26.11;24.22
62791;BME280;48830;53.426;10.300;2023-02-28T13:20:31;103090.16;;;24.80;25.17
62791;BME280;48830;53.426;10.300;2023-02-28T13:22:59;103092.13;;;24.51;26.53
62791;BME280;48830;53.426;10.300;2023-02-28T13:28:12;103095.00;;;21.00;28.36
62791;BME280;48830;53.426;10.300;2023-02-28T13:38:46;103099.44;;;17.43;33.06
62791;BME280;48830;53.426;10.300;2023-02-28T13:46:37;103100.09;;;17.71;32.61
62791;BME280;48830;53.426;10.300;2023-02-28T13:59:49;103085.44;;;19.04;33.04
62791;BME280;48830;53.426;10.300;2023-02-28T14:03:11;103097.16;;;17.93;32.88
62791;BME280;48830;53.426;10.300;2023-02-28T14:05:27;103100.09;;;18.08;32.52
62791;BME280;48830;53.426;10.300;2023-02-28T14:07:59;103094.88;;;18.08;33.16
62791;BME280;48830;53.426;10.300;2023-02-28T14:10:41;103099.19;;;17.70;33.37
62791;BME280;48830;53.426;10.300;2023-02-28T14:13:12;103093.56;;;17.52;33.48
62791;BME280;48830;53.426;10.300;2023-02-28T14:15:55;103089.75;;;18.13;34.28
62791;BME280;48830;53.426;10.300;2023-02-28T14:18:23;103088.78;;;16.98;33.71
62791;BME280;48830;53.426;10.300;2023-02-28T14:20:53;103088.34;;;17.16;34.85
62791;BME280;48830;53.426;10.300;2023-02-28T14:23:49;103089.91;;;17.08;33.44
62791;BME280;48830;53.426;10.300;2023-02-28T14:29:41;103095.66;;;18.47;33.01
62791;BME280;48830;53.426;10.300;2023-02-28T14:38:05;103091.22;;;18.41;32.63
62791;BME280;48830;53.426;10.300;2023-02-28T14:40:34;103095.50;;;18.39;32.75
62791;BME280;48830;53.426;10.300;2023-02-28T14:43:03;103096.16;;;18.29;32.30
62791;BME280;48830;53.426;10.300;2023-02-28T14:45:31;103096.59;;;18.96;32.25
62791;BME280;48830;53.426;10.300;2023-02-28T14:47:58;103105.00;;;17.95;32.05
62791;BME280;48830;53.426;10.300;2023-02-28T14:50:29;103089.16;;;18.25;31.50
62791;BME280;48830;53.426;10.300;2023-02-28T14:52:56;103089.91;;;18.63;31.60
62791;BME280;48830;53.426;10.300;2023-02-28T14:55:26;103092.44;;;18.61;32.07